sensor_id;sensor_type;location;lat;lon;timestamp;P1;durP1;ratioP1;P2;durP2;ratioP2
12441;SDS011;6285;48.804;9.220;2024-01-06T00:26:01;6.30;;;4.03;;
12441;SDS011;6285;48.804;9.220;2024-01-06T00:28:39;10.93;;;4.13;;
12441;SDS011;6285;48.804;9.220;2024-01-06T01:12:36;5.47;;;2.50;;
12441;SDS011;6285;48.804;9.220;2024-01-06T01:24:19;7.75;;;4.10;;
12441;SDS011;6285;48.804;9.220;2024-01-06T01:28:32;3.55;;;2.40;;
12441;SDS011;6285;48.804;9.220;2024-01-06T01:39:38;9.45;;;2.47;;
12441;SDS011;6285;48.804;9.220;2024-01-06T01:42:43;3.88;;;2.50;;
12441;SDS011;6285;48.804;9.220;2024-01-06T01:46:08;3.92;;;2.22;;
12441;SDS011;6285;48.804;9.220;2024-01-06T01:58:41;2.72;;;1.60;;
12441;SDS011;6285;48.804;9.220;2024-01-06T02:01:56;3.25;;;2.10;;
12441;SDS011;6285;48.804;9.220;2024-01-06T02:17:04;5.78;;;2.42;;
12441;SDS011;6285;48.804;9.220;2024-01-06T04:02:35;4.47;;;1.80;;
12441;SDS011;6285;48.804;9.220;2024-01-06T04:05:25;4.35;;;1.75;;
12441;SDS011;6285;48.804;9.220;2024-01-06T04:30:51;4.13;;;1.83;;
12441;SDS011;6285;48.804;9.220;2024-01-06T04:33:33;4.07;;;1.60;;
12441;SDS011;6285;48.804;9.220;2024-01-06T04:39:36;4.38;;;1.70;;
12441;SDS011;6285;48.804;9.220;2024-01-06T04:58:11;4.53;;;1.63;;
12441;SDS011;6285;48.804;9.220;2024-01-06T05:01:19;6.50;;;1.92;;
12441;SDS011;6285;48.804;9.220;2024-01-06T05:04:30;3.70;;;1.35;;
12441;SDS011;6285;48.804;9.220;2024-01-06T05:22:56;3.00;;;1.55;;
12441;SDS011;6285;48.804;9.220;2024-01-06T05:32:02;3.40;;;1.67;;
12441;SDS011;6285;48.804;9.220;2024-01-06T05:38:06;4.85;;;1.60;;
12441;SDS011;6285;48.804;9.220;2024-01-06T05:44:13;2.63;;;1.40;;
12441;SDS011;6285;48.804;9.220;2024-01-06T05:47:29;5.53;;;1.90;;
12441;SDS011;6285;48.804;9.220;2024-01-06T05:50:36;3.22;;;1.40;;
12441;SDS011;6285;48.804;9.220;2024-01-06T06:07:27;4.85;;;2.10;;
12441;SDS011;6285;48.804;9.220;2024-01-06T06:12:10;3.42;;;1.85;;
12441;SDS011;6285;48.804;9.220;2024-01-06T06:40:04;5.43;;;1.98;;
12441;SDS011;6285;48.804;9.220;2024-01-06T06:43:20;4.85;;;2.08;;
12441;SDS011;6285;48.804;9.220;2024-01-06T06:46:19;3.80;;;2.15;;
12441;SDS011;6285;48.804;9.220;2024-01-06T06:53:20;5.47;;;1.88;;
12441;SDS011;6285;48.804;9.220;2024-01-06T06:58:54;3.50;;;1.85;;
12441;SDS011;6285;48.804;9.220;2024-01-06T07:08:48;5.20;;;2.03;;
12441;SDS011;6285;48.804;9.220;2024-01-06T07:17:15;4.65;;;2.08;;
12441;SDS011;6285;48.804;9.220;2024-01-06T07:22:53;2.63;;;1.65;;
12441;SDS011;6285;48.804;9.220;2024-01-06T07:23:21;4.32;;;1.73;;
12441;SDS011;6285;48.804;9.220;2024-01-06T07:26:27;3.85;;;1.70;;
12441;SDS011;6285;48.804;9.220;2024-01-06T07:29:28;4.03;;;1.90;;
12441;SDS011;6285;48.804;9.220;2024-01-06T07:38:20;3.92;;;1.80;;
12441;SDS011;6285;48.804;9.220;2024-01-06T07:41:35;3.83;;;1.77;;
12441;SDS011;6285;48.804;9.220;2024-01-06T07:44:42;4.30;;;1.75;;
12441;SDS011;6285;48.804;9.220;2024-01-06T07:47:44;2.55;;;1.80;;
12441;SDS011;6285;48.804;9.220;2024-01-06T07:50:54;5.22;;;1.88;;
12441;SDS011;6285;48.804;9.220;2024-01-06T07:53:53;6.25;;;2.20;;
12441;SDS011;6285;48.804;9.220;2024-01-06T07:56:45;4.15;;;2.00;;
12441;SDS011;6285;48.804;9.220;2024-01-06T08:01:02;2.13;;;1.55;;
12441;SDS011;6285;48.804;9.220;2024-01-06T08:06:05;4.18;;;1.88;;
12441;SDS011;6285;48.804;9.220;2024-01-06T08:24:34;3.15;;;1.58;;
12441;SDS011;6285;48.804;9.220;2024-01-06T08:27:55;4.18;;;2.00;;
12441;SDS011;6285;48.804;9.220;2024-01-06T08:30:54;3.47;;;1.50;;
12441;SDS011;6285;48.804;9.220;2024-01-06T08:34:36;2.80;;;1.70;;
12441;SDS011;6285;48.804;9.220;2024-01-06T08:45:58;4.72;;;1.73;;
12441;SDS011;6285;48.804;9.220;2024-01-06T08:49:14;2.78;;;1.58;;
12441;SDS011;6285;48.804;9.220;2024-01-06T09:13:10;3.53;;;1.40;;
12441;SDS011;6285;48.804;9.220;2024-01-06T09:18:59;3.08;;;1.40;;
12441;SDS011;6285;48.804;9.220;2024-01-06T09:24:46;2.67;;;1.17;;
12441;SDS011;6285;48.804;9.220;2024-01-06T09:27:28;1.52;;;1.40;;
12441;SDS011;6285;48.804;9.220;2024-01-06T09:36:44;3.30;;;1.50;;
12441;SDS011;6285;48.804;9.220;2024-01-06T09:39:48;1.85;;;1.50;;
12441;SDS011;6285;48.804;9.220;2024-01-06T09:44:03;3.80;;;1.88;;
12441;SDS011;6285;48.804;9.220;2024-01-06T09:45:27;2.75;;;1.92;;
12441;SDS011;6285;48.804;9.220;2024-01-06T09:50:29;2.05;;;1.83;;
12441;SDS011;6285;48.804;9.220;2024-01-06T09:55:23;2.47;;;1.90;;
12441;SDS011;6285;48.804;9.220;2024-01-06T10:07:37;2.30;;;1.80;;
12441;SDS011;6285;48.804;9.220;2024-01-06T10:35:28;1.70;;;1.60;;
12441;SDS011;6285;48.804;9.220;2024-01-06T10:38:29;2.22;;;1.55;;
12441;SDS011;6285;48.804;9.220;2024-01-06T10:44:31;2.22;;;1.75;;
12441;SDS011;6285;48.804;9.220;2024-01-06T11:14:47;2.13;;;1.88;;
12441;SDS011;6285;48.804;9.220;2024-01-06T11:17:26;1.85;;;1.60;;
12441;SDS011;6285;48.804;9.220;2024-01-06T11:20:13;2.05;;;1.85;;
12441;SDS011;6285;48.804;9.220;2024-01-06T11:22:40;2.47;;;2.03;;
12441;SDS011;6285;48.804;9.220;2024-01-06T11:25:07;2.65;;;1.98;;
12441;SDS011;6285;48.804;9.220;2024-01-06T11:27:35;3.75;;;2.13;;
12441;SDS011;6285;48.804;9.220;2024-01-06T11:30:05;2.58;;;1.80;;
12441;SDS011;6285;48.804;9.220;2024-01-06T11:32:32;2.08;;;1.80;;
12441;SDS011;6285;48.804;9.220;2024-01-06T11:35:05;1.70;;;1.60;;
12441;SDS011;6285;48.804;9.220;2024-01-06T11:37:36;2.28;;;2.08;;
12441;SDS011;6285;48.804;9.220;2024-01-06T11:40:07;3.25;;;2.08;;
12441;SDS011;6285;48.804;9.220;2024-01-06T11:42:35;2.20;;;2.00;;
12441;SDS011;6285;48.804;9.220;2024-01-06T11:45:07;2.53;;;2.20;;
12441;SDS011;6285;48.804;9.220;2024-01-06T11:47:34;2.40;;;2.15;;
12441;SDS011;6285;48.804;9.220;2024-01-06T11:50:05;2.30;;;2.10;;
12441;SDS011;6285;48.804;9.220;2024-01-06T11:52:33;3.08;;;2.55;;
12441;SDS011;6285;48.804;9.220;2024-01-06T11:55:00;2.00;;;1.90;;
12441;SDS011;6285;48.804;9.220;2024-01-06T11:57:29;3.55;;;2.40;;
12441;SDS011;6285;48.804;9.220;2024-01-06T11:59:58;2.30;;;2.10;;
12441;SDS011;6285;48.804;9.220;2024-01-06T12:02:26;3.00;;;2.80;;
12441;SDS011;6285;48.804;9.220;2024-01-06T12:04:53;2.85;;;2.65;;
12441;SDS011;6285;48.804;9.220;2024-01-06T12:07:21;4.68;;;2.72;;
12441;SDS011;6285;48.804;9.220;2024-01-06T12:09:48;3.35;;;2.50;;
12441;SDS011;6285;48.804;9.220;2024-01-06T12:12:16;3.00;;;2.65;;
12441;SDS011;6285;48.804;9.220;2024-01-06T12:14:43;3.42;;;2.85;;
12441;SDS011;6285;48.804;9.220;2024-01-06T12:17:12;3.58;;;2.60;;
12441;SDS011;6285;48.804;9.220;2024-01-06T12:19:40;3.33;;;2.85;;
12441;SDS011;6285;48.804;9.220;2024-01-06T12:22:11;4.05;;;2.92;;
12441;SDS011;6285;48.804;9.220;2024-01-06T12:24:39;3.08;;;2.75;;
12441;SDS011;6285;48.804;9.220;2024-01-06T12:27:06;4.03;;;2.95;;
12441;SDS011;6285;48.804;9.220;2024-01-06T12:29:37;4.10;;;3.25;;
12441;SDS011;6285;48.804;9.220;2024-01-06T12:32:05;4.28;;;3.40;;
12441;SDS011;6285;48.804;9.220;2024-01-06T12:34:34;4.25;;;3.53;;
12441;SDS011;6285;48.804;9.220;2024-01-06T12:37:02;4.40;;;4.00;;
12441;SDS011;6285;48.804;9.220;2024-01-06T12:39:30;6.90;;;5.68;;
12441;SDS011;6285;48.804;9.220;2024-01-06T12:41:57;6.65;;;5.30;;
12441;SDS011;6285;48.804;9.220;2024-01-06T12:44:26;6.93;;;5.55;;
12441;SDS011;6285;48.804;9.220;2024-01-06T12:46:57;4.93;;;4.13;;
12441;SDS011;6285;48.804;9.220;2024-01-06T12:49:24;4.65;;;3.83;;
12441;SDS011;6285;48.804;9.220;2024-01-06T12:51:52;4.10;;;3.70;;
12441;SDS011;6285;48.804;9.220;2024-01-06T12:54:20;3.63;;;3.25;;
12441;SDS011;6285;48.804;9.220;2024-01-06T12:56:50;3.72;;;3.38;;
12441;SDS011;6285;48.804;9.220;2024-01-06T12:59:17;4.35;;;3.72;;
12441;SDS011;6285;48.804;9.220;2024-01-06T13:01:44;4.50;;;4.10;;
12441;SDS011;6285;48.804;9.220;2024-01-06T13:04:14;5.13;;;3.78;;
12441;SDS011;6285;48.804;9.220;2024-01-06T13:06:42;4.10;;;3.50;;
12441;SDS011;6285;48.804;9.220;2024-01-06T13:09:09;3.50;;;3.20;;
12441;SDS011;6285;48.804;9.220;2024-01-06T13:11:42;4.22;;;3.83;;
12441;SDS011;6285;48.804;9.220;2024-01-06T13:14:11;4.63;;;3.78;;
12441;SDS011;6285;48.804;9.220;2024-01-06T13:16:41;4.57;;;4.18;;
12441;SDS011;6285;48.804;9.220;2024-01-06T13:19:08;5.70;;;4.75;;
12441;SDS011;6285;48.804;9.220;2024-01-06T13:21:35;5.13;;;4.13;;
12441;SDS011;6285;48.804;9.220;2024-01-06T13:24:04;7.03;;;4.93;;
12441;SDS011;6285;48.804;9.220;2024-01-06T13:26:31;6.05;;;4.47;;
12441;SDS011;6285;48.804;9.220;2024-01-06T13:29:00;4.82;;;4.30;;
12441;SDS011;6285;48.804;9.220;2024-01-06T13:31:27;7.22;;;5.45;;
12441;SDS011;6285;48.804;9.220;2024-01-06T13:33:56;7.35;;;6.28;;
12441;SDS011;6285;48.804;9.220;2024-01-06T13:36:23;7.43;;;5.43;;
12441;SDS011;6285;48.804;9.220;2024-01-06T13:38:50;4.97;;;4.47;;
12441;SDS011;6285;48.804;9.220;2024-01-06T13:41:17;6.80;;;5.22;;
12441;SDS011;6285;48.804;9.220;2024-01-06T13:43:44;5.28;;;4.28;;
12441;SDS011;6285;48.804;9.220;2024-01-06T13:46:12;5.63;;;4.57;;
12441;SDS011;6285;48.804;9.220;2024-01-06T13:48:40;5.90;;;4.78;;
12441;SDS011;6285;48.804;9.220;2024-01-06T13:51:10;5.00;;;4.50;;
12441;SDS011;6285;48.804;9.220;2024-01-06T13:53:37;6.03;;;4.82;;
12441;SDS011;6285;48.804;9.220;2024-01-06T13:56:04;6.90;;;5.40;;
12441;SDS011;6285;48.804;9.220;2024-01-06T13:58:32;5.15;;;4.65;;
12441;SDS011;6285;48.804;9.220;2024-01-06T14:01:00;5.97;;;4.38;;
12441;SDS011;6285;48.804;9.220;2024-01-06T14:03:29;5.45;;;4.88;;
12441;SDS011;6285;48.804;9.220;2024-01-06T14:05:56;6.60;;;5.28;;
12441;SDS011;6285;48.804;9.220;2024-01-06T14:08:24;6.60;;;5.53;;
12441;SDS011;6285;48.804;9.220;2024-01-06T14:10:51;6.78;;;5.75;;
12441;SDS011;6285;48.804;9.220;2024-01-06T14:13:18;6.90;;;5.85;;
12441;SDS011;6285;48.804;9.220;2024-01-06T14:15:45;6.93;;;5.57;;
12441;SDS011;6285;48.804;9.220;2024-01-06T14:18:13;7.18;;;6.28;;
12441;SDS011;6285;48.804;9.220;2024-01-06T14:20:42;7.53;;;6.55;;
12441;SDS011;6285;48.804;9.220;2024-01-06T14:23:09;6.65;;;5.75;;
12441;SDS011;6285;48.804;9.220;2024-01-06T14:25:39;7.00;;;6.30;;
12441;SDS011;6285;48.804;9.220;2024-01-06T14:28:06;8.65;;;5.80;;
12441;SDS011;6285;48.804;9.220;2024-01-06T14:30:33;6.97;;;5.85;;
12441;SDS011;6285;48.804;9.220;2024-01-06T14:33:00;7.72;;;6.03;;
12441;SDS011;6285;48.804;9.220;2024-01-06T14:35:27;6.03;;;5.35;;
12441;SDS011;6285;48.804;9.220;2024-01-06T14:37:56;6.65;;;6.00;;
12441;SDS011;6285;48.804;9.220;2024-01-06T14:40:26;7.68;;;6.88;;
12441;SDS011;6285;48.804;9.220;2024-01-06T14:43:14;8.35;;;6.05;;
12441;SDS011;6285;48.804;9.220;2024-01-06T14:45:44;7.72;;;6.93;;
12441;SDS011;6285;48.804;9.220;2024-01-06T14:48:11;7.00;;;5.70;;
12441;SDS011;6285;48.804;9.220;2024-01-06T14:50:38;6.45;;;5.75;;
12441;SDS011;6285;48.804;9.220;2024-01-06T14:53:08;7.32;;;6.63;;
12441;SDS011;6285;48.804;9.220;2024-01-06T14:55:36;7.93;;;6.30;;
12441;SDS011;6285;48.804;9.220;2024-01-06T14:58:03;6.53;;;5.82;;
12441;SDS011;6285;48.804;9.220;2024-01-06T15:00:30;7.55;;;6.07;;
12441;SDS011;6285;48.804;9.220;2024-01-06T15:02:57;8.68;;;6.30;;
12441;SDS011;6285;48.804;9.220;2024-01-06T15:05:25;7.55;;;6.32;;
12441;SDS011;6285;48.804;9.220;2024-01-06T15:07:54;10.52;;;8.13;;
12441;SDS011;6285;48.804;9.220;2024-01-06T15:10:22;9.13;;;6.80;;
12441;SDS011;6285;48.804;9.220;2024-01-06T15:12:49;8.55;;;6.63;;
12441;SDS011;6285;48.804;9.220;2024-01-06T15:15:18;8.25;;;7.00;;
12441;SDS011;6285;48.804;9.220;2024-01-06T15:17:45;7.15;;;6.45;;
12441;SDS011;6285;48.804;9.220;2024-01-06T15:20:12;10.45;;;8.30;;
12441;SDS011;6285;48.804;9.220;2024-01-06T15:22:39;8.63;;;7.43;;
12441;SDS011;6285;48.804;9.220;2024-01-06T15:25:10;9.65;;;7.38;;
12441;SDS011;6285;48.804;9.220;2024-01-06T15:27:38;9.35;;;7.32;;
12441;SDS011;6285;48.804;9.220;2024-01-06T15:30:07;7.82;;;7.03;;
12441;SDS011;6285;48.804;9.220;2024-01-06T15:32:34;7.43;;;6.72;;
12441;SDS011;6285;48.804;9.220;2024-01-06T15:35:02;7.78;;;6.97;;
12441;SDS011;6285;48.804;9.220;2024-01-06T15:37:29;7.80;;;6.82;;
12441;SDS011;6285;48.804;9.220;2024-01-06T15:39:56;10.82;;;7.30;;
12441;SDS011;6285;48.804;9.220;2024-01-06T15:42:23;9.98;;;7.70;;
12441;SDS011;6285;48.804;9.220;2024-01-06T15:44:52;9.07;;;7.68;;
12441;SDS011;6285;48.804;9.220;2024-01-06T15:47:19;8.18;;;7.35;;
12441;SDS011;6285;48.804;9.220;2024-01-06T15:49:46;8.70;;;7.38;;
12441;SDS011;6285;48.804;9.220;2024-01-06T15:52:13;9.52;;;7.43;;
12441;SDS011;6285;48.804;9.220;2024-01-06T15:54:46;8.80;;;7.63;;
12441;SDS011;6285;48.804;9.220;2024-01-06T15:57:13;8.75;;;7.15;;
12441;SDS011;6285;48.804;9.220;2024-01-06T15:59:40;11.13;;;8.05;;
12441;SDS011;6285;48.804;9.220;2024-01-06T16:02:09;8.93;;;8.07;;
12441;SDS011;6285;48.804;9.220;2024-01-06T16:04:36;11.70;;;10.10;;
12441;SDS011;6285;48.804;9.220;2024-01-06T16:07:04;12.00;;;8.70;;
12441;SDS011;6285;48.804;9.220;2024-01-06T16:09:31;9.73;;;8.35;;
12441;SDS011;6285;48.804;9.220;2024-01-06T16:11:58;9.43;;;8.45;;
12441;SDS011;6285;48.804;9.220;2024-01-06T16:14:25;11.32;;;9.20;;
12441;SDS011;6285;48.804;9.220;2024-01-06T16:16:52;9.98;;;8.57;;
12441;SDS011;6285;48.804;9.220;2024-01-06T16:19:21;11.00;;;8.82;;
12441;SDS011;6285;48.804;9.220;2024-01-06T16:21:48;10.63;;;9.52;;
12441;SDS011;6285;48.804;9.220;2024-01-06T16:24:15;10.25;;;9.13;;
12441;SDS011;6285;48.804;9.220;2024-01-06T16:26:44;11.63;;;9.48;;
12441;SDS011;6285;48.804;9.220;2024-01-06T16:29:11;11.45;;;8.90;;
12441;SDS011;6285;48.804;9.220;2024-01-06T16:31:38;12.10;;;9.30;;
12441;SDS011;6285;48.804;9.220;2024-01-06T16:34:05;10.18;;;9.10;;
12441;SDS011;6285;48.804;9.220;2024-01-06T16:36:34;10.57;;;9.45;;
12441;SDS011;6285;48.804;9.220;2024-01-06T16:39:01;11.68;;;9.40;;
12441;SDS011;6285;48.804;9.220;2024-01-06T16:41:28;14.05;;;11.15;;
12441;SDS011;6285;48.804;9.220;2024-01-06T16:43:55;13.82;;;10.95;;
12441;SDS011;6285;48.804;9.220;2024-01-06T16:46:23;15.55;;;12.38;;
12441;SDS011;6285;48.804;9.220;2024-01-06T16:48:50;14.73;;;11.63;;
12441;SDS011;6285;48.804;9.220;2024-01-06T16:51:17;14.35;;;11.23;;
12441;SDS011;6285;48.804;9.220;2024-01-06T16:53:45;14.27;;;10.82;;
12441;SDS011;6285;48.804;9.220;2024-01-06T16:56:13;15.05;;;11.32;;
12441;SDS011;6285;48.804;9.220;2024-01-06T16:58:43;13.50;;;10.82;;
12441;SDS011;6285;48.804;9.220;2024-01-06T17:01:10;13.52;;;10.80;;
12441;SDS011;6285;48.804;9.220;2024-01-06T17:03:39;14.18;;;11.25;;
12441;SDS011;6285;48.804;9.220;2024-01-06T17:06:08;14.80;;;11.35;;
12441;SDS011;6285;48.804;9.220;2024-01-06T17:08:39;14.05;;;11.43;;
12441;SDS011;6285;48.804;9.220;2024-01-06T17:11:09;14.18;;;11.30;;
12441;SDS011;6285;48.804;9.220;2024-01-06T17:13:36;13.77;;;11.55;;
12441;SDS011;6285;48.804;9.220;2024-01-06T17:16:04;17.92;;;12.70;;
12441;SDS011;6285;48.804;9.220;2024-01-06T17:18:31;13.25;;;11.27;;
12441;SDS011;6285;48.804;9.220;2024-01-06T17:20:58;17.02;;;11.85;;
12441;SDS011;6285;48.804;9.220;2024-01-06T17:23:27;15.00;;;12.20;;
12441;SDS011;6285;48.804;9.220;2024-01-06T17:25:54;14.63;;;12.90;;
12441;SDS011;6285;48.804;9.220;2024-01-06T17:28:23;17.83;;;11.35;;
12441;SDS011;6285;48.804;9.220;2024-01-06T17:30:50;14.57;;;11.88;;
12441;SDS011;6285;48.804;9.220;2024-01-06T17:33:19;17.90;;;12.93;;
12441;SDS011;6285;48.804;9.220;2024-01-06T17:35:46;19.02;;;12.77;;
12441;SDS011;6285;48.804;9.220;2024-01-06T17:38:13;18.23;;;12.48;;
12441;SDS011;6285;48.804;9.220;2024-01-06T17:40:43;16.17;;;12.63;;
12441;SDS011;6285;48.804;9.220;2024-01-06T17:43:10;14.60;;;12.15;;
12441;SDS011;6285;48.804;9.220;2024-01-06T17:45:47;16.50;;;12.70;;
12441;SDS011;6285;48.804;9.220;2024-01-06T17:48:17;15.02;;;12.45;;
12441;SDS011;6285;48.804;9.220;2024-01-06T17:50:44;15.30;;;11.65;;
12441;SDS011;6285;48.804;9.220;2024-01-06T17:53:16;16.85;;;13.77;;
12441;SDS011;6285;48.804;9.220;2024-01-06T17:55:43;19.38;;;12.88;;
12441;SDS011;6285;48.804;9.220;2024-01-06T17:58:15;15.85;;;13.00;;
12441;SDS011;6285;48.804;9.220;2024-01-06T18:00:43;17.10;;;12.73;;
12441;SDS011;6285;48.804;9.220;2024-01-06T18:03:13;16.08;;;13.38;;
12441;SDS011;6285;48.804;9.220;2024-01-06T18:05:40;17.15;;;13.52;;
12441;SDS011;6285;48.804;9.220;2024-01-06T18:08:10;19.10;;;14.40;;
12441;SDS011;6285;48.804;9.220;2024-01-06T18:10:37;19.23;;;14.07;;
12441;SDS011;6285;48.804;9.220;2024-01-06T18:13:04;18.02;;;13.20;;
12441;SDS011;6285;48.804;9.220;2024-01-06T18:15:34;18.40;;;12.75;;
12441;SDS011;6285;48.804;9.220;2024-01-06T18:18:03;17.05;;;13.40;;
12441;SDS011;6285;48.804;9.220;2024-01-06T18:20:37;16.77;;;12.40;;
12441;SDS011;6285;48.804;9.220;2024-01-06T18:23:09;15.75;;;13.38;;
12441;SDS011;6285;48.804;9.220;2024-01-06T18:25:36;15.73;;;12.95;;
12441;SDS011;6285;48.804;9.220;2024-01-06T18:28:03;18.38;;;14.05;;
12441;SDS011;6285;48.804;9.220;2024-01-06T18:30:30;32.95;;;22.35;;
12441;SDS011;6285;48.804;9.220;2024-01-06T18:32:58;17.67;;;13.38;;
12441;SDS011;6285;48.804;9.220;2024-01-06T18:35:25;16.50;;;12.90;;
12441;SDS011;6285;48.804;9.220;2024-01-06T18:37:56;16.90;;;13.52;;
12441;SDS011;6285;48.804;9.220;2024-01-06T18:40:26;17.60;;;13.95;;
12441;SDS011;6285;48.804;9.220;2024-01-06T18:42:53;17.48;;;14.60;;
12441;SDS011;6285;48.804;9.220;2024-01-06T18:45:20;20.20;;;15.25;;
12441;SDS011;6285;48.804;9.220;2024-01-06T18:47:48;20.92;;;15.38;;
12441;SDS011;6285;48.804;9.220;2024-01-06T18:50:15;20.02;;;15.70;;
12441;SDS011;6285;48.804;9.220;2024-01-06T18:52:46;21.75;;;15.48;;
12441;SDS011;6285;48.804;9.220;2024-01-06T18:55:18;22.27;;;16.10;;
12441;SDS011;6285;48.804;9.220;2024-01-06T18:57:45;21.08;;;15.50;;
12441;SDS011;6285;48.804;9.220;2024-01-06T19:00:13;20.73;;;15.00;;
12441;SDS011;6285;48.804;9.220;2024-01-06T19:02:43;18.08;;;15.35;;
12441;SDS011;6285;48.804;9.220;2024-01-06T19:05:11;19.98;;;15.70;;
12441;SDS011;6285;48.804;9.220;2024-01-06T19:07:38;23.52;;;15.82;;
12441;SDS011;6285;48.804;9.220;2024-01-06T19:10:08;19.92;;;16.42;;
12441;SDS011;6285;48.804;9.220;2024-01-06T19:12:37;20.33;;;16.95;;
12441;SDS011;6285;48.804;9.220;2024-01-06T19:15:05;24.45;;;17.50;;
12441;SDS011;6285;48.804;9.220;2024-01-06T19:17:34;21.85;;;15.70;;
12441;SDS011;6285;48.804;9.220;2024-01-06T19:20:01;22.02;;;15.30;;
12441;SDS011;6285;48.804;9.220;2024-01-06T19:22:32;22.77;;;16.30;;
12441;SDS011;6285;48.804;9.220;2024-01-06T19:25:07;21.27;;;15.88;;
12441;SDS011;6285;48.804;9.220;2024-01-06T19:27:35;22.70;;;16.65;;
12441;SDS011;6285;48.804;9.220;2024-01-06T19:30:11;19.85;;;15.65;;
12441;SDS011;6285;48.804;9.220;2024-01-06T19:32:39;19.88;;;15.45;;
12441;SDS011;6285;48.804;9.220;2024-01-06T19:35:07;22.88;;;16.77;;
12441;SDS011;6285;48.804;9.220;2024-01-06T19:37:39;20.13;;;15.45;;
12441;SDS011;6285;48.804;9.220;2024-01-06T19:40:07;20.85;;;16.48;;
12441;SDS011;6285;48.804;9.220;2024-01-06T19:42:45;19.25;;;15.15;;
12441;SDS011;6285;48.804;9.220;2024-01-06T19:45:15;20.25;;;15.00;;
12441;SDS011;6285;48.804;9.220;2024-01-06T19:47:43;21.35;;;15.75;;
12441;SDS011;6285;48.804;9.220;2024-01-06T19:50:10;19.88;;;14.55;;
12441;SDS011;6285;48.804;9.220;2024-01-06T19:52:38;19.75;;;15.30;;
12441;SDS011;6285;48.804;9.220;2024-01-06T19:55:08;19.45;;;14.52;;
12441;SDS011;6285;48.804;9.220;2024-01-06T19:57:35;19.77;;;14.68;;
12441;SDS011;6285;48.804;9.220;2024-01-06T20:00:21;21.52;;;15.63;;
12441;SDS011;6285;48.804;9.220;2024-01-06T20:02:50;19.10;;;15.07;;
12441;SDS011;6285;48.804;9.220;2024-01-06T20:05:20;22.30;;;16.35;;
12441;SDS011;6285;48.804;9.220;2024-01-06T20:07:47;19.95;;;16.42;;
12441;SDS011;6285;48.804;9.220;2024-01-06T20:10:15;22.77;;;15.88;;
12441;SDS011;6285;48.804;9.220;2024-01-06T20:12:43;19.50;;;14.82;;
12441;SDS011;6285;48.804;9.220;2024-01-06T20:15:11;21.45;;;16.05;;
12441;SDS011;6285;48.804;9.220;2024-01-06T20:17:39;19.70;;;15.32;;
12441;SDS011;6285;48.804;9.220;2024-01-06T20:20:08;20.35;;;16.42;;
12441;SDS011;6285;48.804;9.220;2024-01-06T20:22:38;19.42;;;15.75;;
12441;SDS011;6285;48.804;9.220;2024-01-06T20:25:05;20.45;;;15.88;;
12441;SDS011;6285;48.804;9.220;2024-01-06T20:27:32;19.88;;;15.85;;
12441;SDS011;6285;48.804;9.220;2024-01-06T20:30:09;22.55;;;15.80;;
12441;SDS011;6285;48.804;9.220;2024-01-06T20:32:37;21.10;;;16.88;;
12441;SDS011;6285;48.804;9.220;2024-01-06T20:35:05;22.65;;;16.20;;
12441;SDS011;6285;48.804;9.220;2024-01-06T20:37:37;18.95;;;15.13;;
12441;SDS011;6285;48.804;9.220;2024-01-06T20:40:09;20.10;;;15.77;;
12441;SDS011;6285;48.804;9.220;2024-01-06T20:42:36;22.05;;;17.73;;
12441;SDS011;6285;48.804;9.220;2024-01-06T20:45:04;21.65;;;17.08;;
12441;SDS011;6285;48.804;9.220;2024-01-06T20:47:33;22.25;;;16.92;;
12441;SDS011;6285;48.804;9.220;2024-01-06T20:50:05;21.70;;;15.40;;
12441;SDS011;6285;48.804;9.220;2024-01-06T20:52:33;19.33;;;15.85;;
12441;SDS011;6285;48.804;9.220;2024-01-06T20:55:06;23.02;;;15.93;;
12441;SDS011;6285;48.804;9.220;2024-01-06T20:57:33;23.08;;;16.75;;
12441;SDS011;6285;48.804;9.220;2024-01-06T21:00:10;20.70;;;15.63;;
12441;SDS011;6285;48.804;9.220;2024-01-06T21:02:38;20.80;;;15.80;;
12441;SDS011;6285;48.804;9.220;2024-01-06T21:05:05;23.75;;;15.82;;
12441;SDS011;6285;48.804;9.220;2024-01-06T21:07:35;24.20;;;16.90;;
12441;SDS011;6285;48.804;9.220;2024-01-06T21:10:08;20.13;;;15.77;;
12441;SDS011;6285;48.804;9.220;2024-01-06T21:12:35;20.13;;;16.20;;
12441;SDS011;6285;48.804;9.220;2024-01-06T21:15:06;22.35;;;16.90;;
12441;SDS011;6285;48.804;9.220;2024-01-06T21:17:33;22.88;;;16.42;;
12441;SDS011;6285;48.804;9.220;2024-01-06T21:20:00;22.65;;;16.60;;
12441;SDS011;6285;48.804;9.220;2024-01-06T21:22:29;21.35;;;15.93;;
12441;SDS011;6285;48.804;9.220;2024-01-06T21:24:58;25.35;;;18.65;;
12441;SDS011;6285;48.804;9.220;2024-01-06T21:27:29;22.10;;;17.38;;
12441;SDS011;6285;48.804;9.220;2024-01-06T21:29:58;22.40;;;16.38;;
12441;SDS011;6285;48.804;9.220;2024-01-06T21:32:29;24.02;;;16.80;;
12441;SDS011;6285;48.804;9.220;2024-01-06T21:34:56;20.17;;;16.05;;
12441;SDS011;6285;48.804;9.220;2024-01-06T21:37:24;22.02;;;16.98;;
12441;SDS011;6285;48.804;9.220;2024-01-06T21:39:53;20.80;;;15.88;;
12441;SDS011;6285;48.804;9.220;2024-01-06T21:42:20;21.50;;;17.17;;
12441;SDS011;6285;48.804;9.220;2024-01-06T21:44:48;22.00;;;16.98;;
12441;SDS011;6285;48.804;9.220;2024-01-06T21:47:18;21.20;;;15.55;;
12441;SDS011;6285;48.804;9.220;2024-01-06T21:49:45;23.92;;;16.70;;
12441;SDS011;6285;48.804;9.220;2024-01-06T21:52:12;21.27;;;15.95;;
12441;SDS011;6285;48.804;9.220;2024-01-06T21:54:39;23.58;;;16.52;;
12441;SDS011;6285;48.804;9.220;2024-01-06T21:57:07;22.30;;;17.13;;
12441;SDS011;6285;48.804;9.220;2024-01-06T21:59:34;20.15;;;15.57;;
12441;SDS011;6285;48.804;9.220;2024-01-06T22:02:02;22.15;;;16.27;;
12441;SDS011;6285;48.804;9.220;2024-01-06T22:04:29;20.88;;;15.90;;
12441;SDS011;6285;48.804;9.220;2024-01-06T22:06:59;23.38;;;16.80;;
12441;SDS011;6285;48.804;9.220;2024-01-06T22:09:26;22.40;;;16.30;;
12441;SDS011;6285;48.804;9.220;2024-01-06T22:11:58;22.20;;;16.60;;
12441;SDS011;6285;48.804;9.220;2024-01-06T22:14:25;22.80;;;17.10;;
12441;SDS011;6285;48.804;9.220;2024-01-06T22:16:53;23.58;;;16.50;;
12441;SDS011;6285;48.804;9.220;2024-01-06T22:19:23;20.70;;;16.13;;
12441;SDS011;6285;48.804;9.220;2024-01-06T22:21:50;21.73;;;17.23;;
12441;SDS011;6285;48.804;9.220;2024-01-06T22:24:17;22.77;;;16.98;;
12441;SDS011;6285;48.804;9.220;2024-01-06T22:26:45;23.45;;;18.05;;
12441;SDS011;6285;48.804;9.220;2024-01-06T22:29:12;25.38;;;18.60;;
12441;SDS011;6285;48.804;9.220;2024-01-06T22:31:40;23.20;;;17.02;;
12441;SDS011;6285;48.804;9.220;2024-01-06T22:34:08;24.63;;;17.98;;
12441;SDS011;6285;48.804;9.220;2024-01-06T22:36:40;23.35;;;17.02;;
12441;SDS011;6285;48.804;9.220;2024-01-06T22:39:07;24.90;;;17.67;;
12441;SDS011;6285;48.804;9.220;2024-01-06T22:41:34;24.15;;;17.70;;
12441;SDS011;6285;48.804;9.220;2024-01-06T22:44:02;24.77;;;17.55;;
12441;SDS011;6285;48.804;9.220;2024-01-06T22:46:31;23.20;;;17.75;;
12441;SDS011;6285;48.804;9.220;2024-01-06T22:48:58;22.52;;;17.60;;
12441;SDS011;6285;48.804;9.220;2024-01-06T22:51:25;26.80;;;17.77;;
12441;SDS011;6285;48.804;9.220;2024-01-06T22:53:54;25.25;;;18.05;;
12441;SDS011;6285;48.804;9.220;2024-01-06T22:56:22;23.73;;;17.05;;
12441;SDS011;6285;48.804;9.220;2024-01-06T22:58:49;25.33;;;17.38;;
12441;SDS011;6285;48.804;9.220;2024-01-06T23:01:16;22.40;;;17.27;;
12441;SDS011;6285;48.804;9.220;2024-01-06T23:03:43;23.45;;;17.38;;
12441;SDS011;6285;48.804;9.220;2024-01-06T23:06:10;23.05;;;17.65;;
12441;SDS011;6285;48.804;9.220;2024-01-06T23:08:38;22.52;;;16.58;;
12441;SDS011;6285;48.804;9.220;2024-01-06T23:11:09;25.13;;;16.70;;
12441;SDS011;6285;48.804;9.220;2024-01-06T23:13:37;23.33;;;17.20;;
12441;SDS011;6285;48.804;9.220;2024-01-06T23:16:04;20.67;;;16.33;;
12441;SDS011;6285;48.804;9.220;2024-01-06T23:18:31;21.73;;;15.77;;
12441;SDS011;6285;48.804;9.220;2024-01-06T23:20:59;23.67;;;17.98;;
12441;SDS011;6285;48.804;9.220;2024-01-06T23:23:27;21.83;;;16.23;;